createdAt,value
2022-11-24T07:39:19.211Z,6.60
2022-11-24T07:49:21.227Z,6.60
2022-11-24T07:59:24.517Z,6.70
2022-11-24T08:09:26.419Z,6.80
2022-11-24T08:19:29.796Z,7.10
2022-11-24T08:29:31.923Z,7.30
2022-11-24T08:39:35.233Z,7.60
2022-11-24T08:49:37.173Z,8.10
2022-11-24T08:59:40.507Z,8.30
2022-11-24T09:09:42.471Z,8.50
2022-11-24T09:19:46.565Z,8.70
2022-11-24T09:29:48.518Z,9.00
2022-11-24T09:39:51.825Z,9.80
2022-11-24T09:49:59.502Z,10.50
2022-11-24T10:00:11.752Z,10.50
2022-11-24T10:10:24.288Z,10.30
2022-11-24T10:20:41.416Z,10.60
2022-11-24T10:30:43.877Z,12.30
2022-11-24T10:40:57.557Z,12.40
2022-11-24T10:51:12.167Z,11.70
2022-11-24T11:01:28.934Z,11.90
2022-11-24T11:11:31.006Z,12.20
2022-11-24T11:21:37.313Z,12.00
2022-11-24T11:31:39.831Z,11.90
2022-11-24T11:41:48.195Z,12.20
2022-11-24T11:52:12.069Z,12.30
2022-11-24T12:02:41.023Z,12.30
2022-11-24T12:12:55.506Z,12.40
2022-11-24T12:23:06.842Z,12.60
2022-11-24T12:33:29.293Z,12.60
2022-11-24T12:43:35.309Z,12.60
2022-11-24T12:53:38.570Z,12.70
2022-11-24T13:03:51.005Z,12.80
2022-11-24T13:13:59.170Z,12.90
2022-11-24T13:24:04.244Z,12.90
2022-11-24T13:34:44.756Z,13.00
2022-11-24T13:44:57.313Z,13.00
2022-11-24T13:54:59.423Z,12.70
2022-11-24T14:05:03.108Z,12.70
2022-11-24T14:15:22.428Z,12.60
2022-11-24T14:25:29.283Z,12.70
2022-11-24T14:35:33.077Z,12.70
2022-11-24T14:45:36.535Z,12.60
2022-11-24T14:55:38.455Z,12.60
2022-11-24T15:05:56.743Z,12.50
2022-11-24T15:16:03.103Z,12.50
2022-11-24T15:26:30.721Z,12.40
2022-11-24T15:36:33.364Z,12.50
2022-11-24T15:46:36.699Z,12.60
2022-11-24T15:56:39.531Z,12.50
2022-11-24T16:06:42.845Z,12.50
2022-11-24T16:16:44.837Z,12.20
2022-11-24T16:26:48.187Z,11.70
2022-11-24T16:36:50.233Z,11.10
2022-11-24T16:46:53.542Z,10.80
2022-11-24T16:56:55.732Z,10.70
2022-11-24T17:06:59.074Z,10.60
2022-11-24T17:17:01.115Z,10.40
2022-11-24T17:27:04.448Z,10.30
2022-11-24T17:37:06.453Z,10.40
2022-11-24T17:47:09.728Z,10.40
2022-11-24T17:57:11.686Z,10.40
2022-11-24T18:07:15.045Z,10.20
2022-11-24T18:17:16.990Z,10.10
2022-11-24T18:27:45.075Z,9.90
2022-11-24T18:37:47.032Z,9.80
2022-11-24T18:47:51.540Z,9.70
2022-11-24T18:57:54.196Z,9.60
2022-11-24T19:07:57.573Z,9.50
2022-11-24T19:17:59.574Z,9.40
2022-11-24T19:28:03.200Z,9.40
2022-11-24T19:38:05.124Z,9.40
2022-11-24T19:48:08.562Z,9.60
2022-11-24T19:58:10.543Z,9.60
2022-11-24T20:08:13.815Z,9.70
2022-11-24T20:18:15.729Z,9.70
2022-11-24T20:28:19.009Z,9.80
2022-11-24T20:38:20.906Z,9.80
2022-11-24T20:48:24.207Z,9.70
2022-11-24T20:58:26.161Z,9.60
2022-11-24T21:08:32.105Z,9.50
2022-11-24T21:18:34.208Z,9.30
2022-11-24T21:28:37.613Z,9.20
2022-11-24T21:38:39.516Z,9.00
2022-11-24T21:48:42.884Z,8.80
2022-11-24T21:58:45.750Z,8.60
2022-11-24T22:08:49.556Z,8.40
2022-11-24T22:18:51.548Z,8.40
2022-11-24T22:28:55.827Z,8.30
2022-11-24T22:38:59.159Z,8.10
2022-11-24T22:49:02.501Z,7.90
2022-11-24T22:59:04.427Z,7.90
2022-11-24T23:09:07.716Z,7.90
2022-11-24T23:19:10.305Z,7.90
2022-11-24T23:29:13.723Z,7.90
2022-11-24T23:39:15.703Z,7.80
2022-11-24T23:49:18.993Z,7.60
2022-11-24T23:59:20.889Z,7.60
